Time;durP1;ratioP1;P1;durP2;ratioP2;P2;SDS_P1;SDS_P2;PMS_P1;PMS_P2;Temp;Humidity;BMP_temperature;BMP_pressure;BME280_temperature;BME280_humidity;BME280_pressure;Samples;Min_cycle;Max_cycle;Signal;HPM_P1;HPM_P2
2022/08/28 00:01:28;;;;;;;0.73;0.73;;;17.60;99.90;;;;;;5009278;28;20432;-58
2022/08/28 00:03:55;;;;;;;0.82;0.70;;;17.60;99.90;;;;;;5002522;28;20439;-58
2022/08/28 00:06:21;;;;;;;0.50;0.50;;;17.60;99.90;;;;;;5007016;28;20455;-58
2022/08/28 00:08:48;;;;;;;0.63;0.63;;;17.70;99.90;;;;;;5003791;28;20527;-58
2022/08/28 00:11:15;;;;;;;0.77;0.70;;;17.80;99.90;;;;;;5008542;28;21239;-58
2022/08/28 00:13:42;;;;;;;0.80;0.80;;;17.80;99.90;;;;;;5007491;28;20447;-58
2022/08/28 00:16:10;;;;;;;0.50;0.50;;;17.90;99.90;;;;;;5007239;28;20783;-58
2022/08/28 00:18:37;;;;;;;0.60;0.60;;;18.00;99.90;;;;;;5004747;28;20951;-58
2022/08/28 00:21:04;;;;;;;0.95;0.80;;;18.00;99.90;;;;;;5001740;28;20436;-58
2022/08/28 00:23:34;;;;;;;0.50;0.50;;;18.10;99.90;;;;;;4998062;28;21219;-57
2022/08/28 00:26:09;;;;;;;0.70;0.70;;;18.10;99.90;;;;;;5006427;28;21316;-59
2022/08/28 00:28:36;;;;;;;0.50;0.50;;;18.10;99.90;;;;;;5004098;28;20434;-58
2022/08/28 00:31:05;;;;;;;0.63;0.63;;;18.10;99.90;;;;;;4997005;28;20489;-59
2022/08/28 00:33:33;;;;;;;0.65;0.65;;;18.10;99.90;;;;;;5004655;28;20499;-60
2022/08/28 00:36:01;;;;;;;0.55;0.52;;;18.10;99.90;;;;;;5002440;28;20473;-59
2022/08/28 00:38:29;;;;;;;0.60;0.60;;;18.20;99.90;;;;;;4997308;28;20521;-59
2022/08/28 00:40:59;;;;;;;0.73;0.73;;;18.10;99.90;;;;;;5001925;28;20948;-59
2022/08/28 00:43:43;;;;;;;0.70;0.70;;;18.10;99.90;;;;;;4990476;28;21034;-59
2022/08/28 00:46:14;;;;;;;0.70;0.70;;;18.10;99.90;;;;;;5006014;28;20519;-57
2022/08/28 00:48:41;;;;;;;0.40;0.40;;;18.10;99.90;;;;;;5005626;28;20516;-57
2022/08/28 00:53:57;;;;;;;1.50;0.80;;;18.20;99.90;;;;;;5001697;28;20448;-58
2022/08/28 00:56:27;;;;;;;0.60;0.60;;;18.20;99.90;;;;;;5002783;28;20445;-58
2022/08/28 00:58:57;;;;;;;0.70;0.70;;;18.20;99.90;;;;;;5006225;28;20855;-58
2022/08/28 01:01:24;;;;;;;0.50;0.50;;;18.20;99.90;;;;;;5002212;28;20433;-60
2022/08/28 01:03:53;;;;;;;0.60;0.60;;;18.20;99.90;;;;;;5007250;28;20729;-58
2022/08/28 01:06:21;;;;;;;0.90;0.90;;;18.20;99.90;;;;;;5005645;28;20515;-58
2022/08/28 01:08:49;;;;;;;0.67;0.60;;;18.20;99.90;;;;;;5004403;28;20443;-61
2022/08/28 01:11:18;;;;;;;0.40;0.40;;;18.20;99.90;;;;;;5003017;28;20438;-58
2022/08/28 01:13:47;;;;;;;0.70;0.70;;;18.30;99.90;;;;;;5006309;28;20524;-58
2022/08/28 01:16:18;;;;;;;0.50;0.50;;;18.20;99.90;;;;;;4997822;28;20459;-58
2022/08/28 01:18:46;;;;;;;0.50;0.50;;;18.20;99.90;;;;;;5001445;28;20428;-58
2022/08/28 01:21:38;;;;;;;1.70;0.70;;;18.20;99.90;;;;;;5000880;28;20440;-58
2022/08/28 01:24:10;;;;;;;0.73;0.73;;;18.20;99.90;;;;;;5001715;28;20431;-58
2022/08/28 01:26:37;;;;;;;0.60;0.60;;;18.20;99.90;;;;;;5009139;28;20424;-58
2022/08/28 01:29:06;;;;;;;0.80;0.53;;;18.20;99.90;;;;;;5002102;28;20432;-58
2022/08/28 01:31:33;;;;;;;0.82;0.82;;;18.20;99.90;;;;;;4999578;28;20537;-58
2022/08/28 01:34:01;;;;;;;0.68;0.68;;;18.20;99.90;;;;;;5003245;28;20441;-58
2022/08/28 01:36:28;;;;;;;0.60;0.60;;;18.20;99.90;;;;;;5000316;28;20514;-58
2022/08/28 01:39:03;;;;;;;0.80;0.80;;;18.20;99.90;;;;;;5000779;28;20445;-58
2022/08/28 01:41:30;;;;;;;0.60;0.60;;;18.20;99.90;;;;;;5001567;28;20442;-58
2022/08/28 01:43:56;;;;;;;0.60;0.60;;;18.20;99.90;;;;;;5002285;28;20428;-58
2022/08/28 01:46:23;;;;;;;0.55;0.55;;;18.20;99.90;;;;;;4999946;28;20446;-58
2022/08/28 01:48:50;;;;;;;0.60;0.60;;;18.20;99.90;;;;;;5000102;28;20437;-58
2022/08/28 01:51:17;;;;;;;0.80;0.80;;;18.20;99.90;;;;;;5001574;28;20538;-58
2022/08/28 01:53:50;;;;;;;0.60;0.60;;;18.20;99.90;;;;;;5004087;28;20443;-58
2022/08/28 01:56:17;;;;;;;1.00;1.00;;;18.20;99.90;;;;;;5007868;28;21026;-58
2022/08/28 01:58:46;;;;;;;0.90;0.60;;;18.20;99.90;;;;;;5001680;28;20521;-58
2022/08/28 02:01:19;;;;;;;0.60;0.60;;;18.20;99.90;;;;;;5004012;28;20989;-58
2022/08/28 02:03:48;;;;;;;0.52;0.52;;;18.20;99.90;;;;;;5006437;28;20454;-58
2022/08/28 02:06:15;;;;;;;0.65;0.43;;;18.20;99.90;;;;;;5000898;28;20516;-58
2022/08/28 02:08:42;;;;;;;2.20;0.40;;;18.20;99.90;;;;;;5004977;28;20428;-58
2022/08/28 02:11:09;;;;;;;0.63;0.63;;;18.20;99.90;;;;;;5005306;28;20478;-58
2022/08/28 02:13:38;;;;;;;0.50;0.50;;;18.20;99.90;;;;;;5006955;28;20523;-58
2022/08/28 02:16:09;;;;;;;0.40;0.40;;;18.10;99.90;;;;;;5006750;28;20443;-58
2022/08/28 02:18:36;;;;;;;0.40;0.40;;;18.10;99.90;;;;;;5000635;28;20465;-58
2022/08/28 02:21:05;;;;;;;0.70;0.70;;;18.10;99.90;;;;;;5006359;28;20436;-58
2022/08/28 02:23:37;;;;;;;0.73;0.73;;;18.20;99.90;;;;;;5006451;28;20439;-58
2022/08/28 02:26:04;;;;;;;0.52;0.52;;;18.10;99.90;;;;;;5012177;28;20523;-58
2022/08/28 02:28:33;;;;;;;0.70;0.57;;;18.20;99.90;;;;;;5005930;28;20437;-58
2022/08/28 02:31:00;;;;;;;0.63;0.63;;;18.10;99.90;;;;;;5008350;28;20439;-58
2022/08/28 02:33:27;;;;;;;0.55;0.55;;;18.20;99.90;;;;;;5003416;28;20503;-59
2022/08/28 02:35:54;;;;;;;0.60;0.60;;;18.20;99.90;;;;;;5011638;28;20428;-58
2022/08/28 02:38:21;;;;;;;1.30;0.43;;;18.20;99.90;;;;;;5010461;28;20969;-58
2022/08/28 02:40:48;;;;;;;0.50;0.50;;;18.20;99.90;;;;;;5010825;28;20438;-58
2022/08/28 02:43:14;;;;;;;1.00;0.70;;;18.20;99.90;;;;;;5002213;28;20438;-58
2022/08/28 02:45:44;;;;;;;0.55;0.55;;;18.20;99.90;;;;;;5005926;28;20432;-58
2022/08/28 02:48:13;;;;;;;1.63;0.55;;;18.20;99.90;;;;;;5009656;28;20517;-58
2022/08/28 02:50:45;;;;;;;0.43;0.43;;;18.10;99.90;;;;;;5009631;28;20520;-58
2022/08/28 02:53:12;;;;;;;0.43;0.40;;;18.10;99.90;;;;;;5011304;28;20827;-58
2022/08/28 02:55:39;;;;;;;0.60;0.50;;;18.10;99.90;;;;;;5002821;28;20488;-58
2022/08/28 02:58:08;;;;;;;0.60;0.60;;;18.10;99.90;;;;;;5001043;28;20466;-58
2022/08/28 03:00:38;;;;;;;0.60;0.60;;;18.10;99.90;;;;;;5003702;28;20831;-58
2022/08/28 03:03:04;;;;;;;0.63;0.63;;;18.10;99.90;;;;;;4990477;28;20442;-58
2022/08/28 03:05:31;;;;;;;1.00;0.73;;;18.10;99.90;;;;;;5007268;28;20471;-58
2022/08/28 03:07:58;;;;;;;0.52;0.52;;;18.10;99.90;;;;;;5007819;28;20491;-58
2022/08/28 03:10:26;;;;;;;1.30;0.65;;;18.10;99.90;;;;;;5002794;28;20483;-58
2022/08/28 03:12:53;;;;;;;0.50;0.50;;;18.10;99.90;;;;;;5006287;28;20526;-59
2022/08/28 03:15:20;;;;;;;0.60;0.60;;;18.10;99.90;;;;;;5007866;28;20466;-58
2022/08/28 03:17:47;;;;;;;0.50;0.50;;;18.00;99.90;;;;;;5008735;28;20835;-58
2022/08/28 03:20:15;;;;;;;0.60;0.55;;;17.90;99.90;;;;;;5006552;28;20440;-58
2022/08/28 03:25:28;;;;;;;0.60;0.60;;;17.90;99.90;;;;;;5005532;28;20429;-58
2022/08/28 03:27:58;;;;;;;0.50;0.50;;;17.80;99.90;;;;;;5011793;28;20955;-58
2022/08/28 03:30:25;;;;;;;0.60;0.60;;;17.80;99.90;;;;;;4993383;28;20449;-58
2022/08/28 03:32:52;;;;;;;0.55;0.55;;;17.70;99.90;;;;;;5004874;28;20490;-58
2022/08/28 03:35:20;;;;;;;2.03;0.77;;;17.70;99.90;;;;;;5006366;28;20437;-59
2022/08/28 03:37:47;;;;;;;0.43;0.43;;;17.70;99.90;;;;;;5002712;28;20839;-58
2022/08/28 03:40:15;;;;;;;0.52;0.52;;;17.70;99.90;;;;;;5009346;28;20454;-58
2022/08/28 03:42:42;;;;;;;0.63;0.63;;;17.60;99.90;;;;;;4999920;28;21033;-58
2022/08/28 03:45:18;;;;;;;0.60;0.60;;;17.60;99.90;;;;;;5002139;28;20436;-58
2022/08/28 03:47:45;;;;;;;0.63;0.63;;;17.60;99.90;;;;;;5006972;28;20436;-58
2022/08/28 03:50:15;;;;;;;0.50;0.50;;;17.60;99.90;;;;;;5009556;28;21211;-58
2022/08/28 03:52:43;;;;;;;0.50;0.50;;;17.60;99.90;;;;;;4996459;28;20850;-58
2022/08/28 03:55:11;;;;;;;0.70;0.70;;;17.60;99.90;;;;;;5005319;28;20563;-58
2022/08/28 03:57:39;;;;;;;0.70;0.70;;;17.60;99.90;;;;;;5005109;28;20527;-58
2022/08/28 04:00:09;;;;;;;0.70;0.70;;;17.60;99.90;;;;;;5006493;28;20834;-58
2022/08/28 04:02:36;;;;;;;0.60;0.60;;;17.60;99.90;;;;;;4994302;28;20939;-58
2022/08/28 04:05:05;;;;;;;0.82;0.77;;;17.60;99.90;;;;;;5008459;28;20432;-59
2022/08/28 04:07:32;;;;;;;0.70;0.70;;;17.70;99.90;;;;;;4997370;28;20915;-59
2022/08/28 04:10:07;;;;;;;0.50;0.50;;;17.70;99.90;;;;;;5006203;28;20558;-58
2022/08/28 04:12:34;;;;;;;0.57;0.57;;;17.70;99.90;;;;;;4995663;28;20473;-58
2022/08/28 04:15:03;;;;;;;0.40;0.40;;;17.70;99.90;;;;;;5005387;28;20439;-58
2022/08/28 04:17:32;;;;;;;0.40;0.40;;;17.70;99.90;;;;;;5009780;28;20443;-58
2022/08/28 04:19:59;;;;;;;0.60;0.60;;;17.80;99.90;;;;;;4999877;28;20547;-58
2022/08/28 04:22:28;;;;;;;0.80;0.80;;;17.80;99.90;;;;;;5003145;28;20539;-58
2022/08/28 04:24:56;;;;;;;0.70;0.70;;;17.80;99.90;;;;;;5003099;28;20523;-58
2022/08/28 04:27:23;;;;;;;1.70;0.60;;;17.80;99.90;;;;;;4997078;28;20441;-58
2022/08/28 04:29:50;;;;;;;0.40;0.40;;;17.80;99.90;;;;;;4996558;28;20436;-58
2022/08/28 04:32:17;;;;;;;0.40;0.40;;;17.90;99.90;;;;;;5023007;28;20449;-58
2022/08/28 04:34:47;;;;;;;1.10;0.60;;;17.80;99.90;;;;;;5002740;28;20485;-58
2022/08/28 04:37:14;;;;;;;0.60;0.60;;;17.80;99.90;;;;;;4999664;28;20441;-58
2022/08/28 04:39:41;;;;;;;0.90;0.90;;;17.70;99.90;;;;;;4998438;28;20438;-58
2022/08/28 04:42:08;;;;;;;0.50;0.50;;;17.70;99.90;;;;;;5004829;28;20440;-58
2022/08/28 04:44:35;;;;;;;0.52;0.52;;;17.70;99.90;;;;;;5000561;28;20443;-58
2022/08/28 04:47:02;;;;;;;0.40;0.40;;;17.70;99.90;;;;;;5001585;28;20428;-58
2022/08/28 04:49:35;;;;;;;0.70;0.70;;;17.70;99.90;;;;;;5005913;28;20510;-58
2022/08/28 04:52:02;;;;;;;0.45;0.45;;;17.70;99.90;;;;;;5003368;28;20431;-58
2022/08/28 04:54:32;;;;;;;0.50;0.50;;;17.70;99.90;;;;;;5000265;28;20434;-58
2022/08/28 04:57:00;;;;;;;0.38;0.38;;;17.70;99.90;;;;;;5002259;28;20859;-58
2022/08/28 04:59:27;;;;;;;0.50;0.50;;;17.70;99.90;;;;;;5009204;28;20440;-59
2022/08/28 05:01:54;;;;;;;0.52;0.52;;;17.80;99.90;;;;;;4996475;28;20441;-58
2022/08/28 05:04:21;;;;;;;0.65;0.65;;;17.80;99.90;;;;;;5004706;28;20440;-58
2022/08/28 05:06:48;;;;;;;1.10;0.75;;;17.90;99.90;;;;;;4999318;28;20810;-58
2022/08/28 05:09:17;;;;;;;1.77;0.60;;;17.90;99.90;;;;;;4992358;28;20435;-58
2022/08/28 05:11:45;;;;;;;0.70;0.50;;;17.90;99.90;;;;;;5005498;28;20436;-58
2022/08/28 05:14:13;;;;;;;0.80;0.50;;;18.00;99.90;;;;;;5008801;28;20443;-58
2022/08/28 05:16:46;;;;;;;0.50;0.50;;;18.00;99.90;;;;;;4997115;28;20439;-58
2022/08/28 05:19:14;;;;;;;0.40;0.40;;;18.10;99.90;;;;;;5006805;28;20563;-58
2022/08/28 05:21:41;;;;;;;0.40;0.40;;;18.10;99.90;;;;;;5004902;28;20483;-58
2022/08/28 05:24:12;;;;;;;0.40;0.40;;;18.20;99.90;;;;;;5000162;28;20891;-58
2022/08/28 05:26:39;;;;;;;1.10;0.60;;;18.20;99.90;;;;;;5000913;28;20429;-59
2022/08/28 05:29:10;;;;;;;0.65;0.65;;;18.30;99.90;;;;;;4994656;28;20428;-59
2022/08/28 05:31:41;;;;;;;0.43;0.43;;;18.30;99.90;;;;;;5003750;28;20455;-58
2022/08/28 05:34:09;;;;;;;0.40;0.40;;;18.30;99.90;;;;;;5001398;28;20468;-59
2022/08/28 05:36:38;;;;;;;0.40;0.40;;;18.40;99.90;;;;;;5003859;28;20428;-62
2022/08/28 05:39:08;;;;;;;0.68;0.60;;;18.40;99.90;;;;;;5000002;28;20437;-59
2022/08/28 05:41:37;;;;;;;0.30;0.30;;;18.50;99.90;;;;;;5003552;28;20515;-59
2022/08/28 05:44:07;;;;;;;0.30;0.30;;;18.50;99.90;;;;;;5007529;28;20902;-58
2022/08/28 05:46:38;;;;;;;0.40;0.40;;;18.50;99.90;;;;;;4993872;28;20467;-58
2022/08/28 05:49:06;;;;;;;2.20;0.50;;;18.60;99.90;;;;;;5002338;28;20430;-59
2022/08/28 05:51:39;;;;;;;0.40;0.40;;;18.70;99.90;;;;;;5000808;28;20432;-59
2022/08/28 05:54:05;;;;;;;0.40;0.40;;;18.70;99.90;;;;;;5001630;28;20502;-57
2022/08/28 05:56:35;;;;;;;1.38;0.93;;;18.80;99.90;;;;;;4998616;28;20448;-58
2022/08/28 05:59:04;;;;;;;0.40;0.40;;;18.80;99.90;;;;;;5003648;28;20433;-58
2022/08/28 06:01:34;;;;;;;0.38;0.38;;;18.90;99.90;;;;;;5001116;28;20511;-58
2022/08/28 06:04:06;;;;;;;0.43;0.43;;;18.90;99.90;;;;;;4994649;28;20463;-58
2022/08/28 06:06:35;;;;;;;0.40;0.40;;;18.90;99.90;;;;;;4998608;28;20866;-58
2022/08/28 06:09:06;;;;;;;0.50;0.50;;;18.90;99.90;;;;;;5001418;28;20461;-59
2022/08/28 06:11:37;;;;;;;0.50;0.50;;;19.10;99.90;;;;;;4998632;28;21107;-60
2022/08/28 06:14:12;;;;;;;1.00;0.32;;;19.40;99.90;;;;;;5000995;28;20890;-59
2022/08/28 06:16:46;;;;;;;0.40;0.40;;;19.80;99.90;;;;;;5008074;28;20429;-59
2022/08/28 06:19:14;;;;;;;1.30;0.40;;;20.00;99.90;;;;;;5002366;28;20921;-59
2022/08/28 06:21:41;;;;;;;0.70;0.33;;;20.30;99.90;;;;;;5003485;28;20539;-59
2022/08/28 06:24:10;;;;;;;0.60;0.50;;;20.50;99.90;;;;;;5005404;28;20440;-59
2022/08/28 06:26:37;;;;;;;0.30;0.30;;;20.60;99.90;;;;;;5005006;28;20532;-59
2022/08/28 06:29:07;;;;;;;0.40;0.40;;;20.50;99.90;;;;;;5004891;28;20527;-59
2022/08/28 06:31:34;;;;;;;0.50;0.50;;;20.60;99.90;;;;;;5009107;28;20460;-59
2022/08/28 06:34:05;;;;;;;0.57;0.57;;;20.70;99.90;;;;;;5000792;28;20436;-59
2022/08/28 06:36:35;;;;;;;0.50;0.50;;;20.90;99.90;;;;;;5003104;28;20464;-59
2022/08/28 06:39:04;;;;;;;0.70;0.60;;;21.20;99.90;;;;;;4989580;28;20439;-59
2022/08/28 06:41:32;;;;;;;1.40;0.32;;;21.60;99.90;;;;;;5005297;28;20480;-60
2022/08/28 06:43:59;;;;;;;0.50;0.50;;;22.20;99.90;;;;;;5003718;28;20788;-59
2022/08/28 06:46:29;;;;;;;0.40;0.40;;;22.50;99.90;;;;;;5006714;28;21061;-59
2022/08/28 06:48:55;;;;;;;1.20;0.50;;;23.10;99.90;;;;;;5002655;28;20452;-59
2022/08/28 06:51:22;;;;;;;0.40;0.40;;;23.30;99.90;;;;;;5003456;28;20506;-59
2022/08/28 06:53:51;;;;;;;0.60;0.40;;;23.70;99.90;;;;;;4998314;28;20440;-59
2022/08/28 06:56:19;;;;;;;0.43;0.40;;;23.60;99.90;;;;;;4999707;28;21101;-59
2022/08/28 06:58:56;;;;;;;0.40;0.40;;;23.90;99.90;;;;;;5005211;28;20433;-59
2022/08/28 07:01:27;;;;;;;1.60;0.47;;;24.10;99.90;;;;;;4995560;28;20434;-57
2022/08/28 07:03:58;;;;;;;0.40;0.40;;;24.10;99.90;;;;;;4998614;28;20463;-57
2022/08/28 07:06:26;;;;;;;0.40;0.40;;;24.00;99.90;;;;;;5000837;28;20456;-59
2022/08/28 07:08:53;;;;;;;1.60;0.40;;;24.10;99.90;;;;;;5006936;28;20531;-59
2022/08/28 07:11:20;;;;;;;0.63;0.50;;;24.10;99.90;;;;;;5005222;28;20432;-60
2022/08/28 07:13:52;;;;;;;0.43;0.30;;;24.10;99.90;;;;;;4994169;28;20440;-59
2022/08/28 07:16:22;;;;;;;1.10;0.70;;;24.30;99.90;;;;;;4999319;28;20442;-59
2022/08/28 07:18:52;;;;;;;0.40;0.40;;;23.90;99.90;;;;;;5001426;28;20441;-57
2022/08/28 07:21:19;;;;;;;0.35;0.35;;;24.10;99.90;;;;;;4998981;28;20523;-58
2022/08/28 07:23:46;;;;;;;0.30;0.30;;;24.00;99.90;;;;;;5001692;28;20935;-57
2022/08/28 07:26:21;;;;;;;0.40;0.40;;;24.30;99.90;;;;;;5004915;28;20443;-57
2022/08/28 07:28:48;;;;;;;0.50;0.50;;;24.50;99.90;;;;;;5003876;28;20428;-58
2022/08/28 07:31:18;;;;;;;0.40;0.40;;;24.20;99.90;;;;;;5001585;28;20434;-59
2022/08/28 07:33:46;;;;;;;0.40;0.40;;;24.50;99.90;;;;;;4998844;28;20433;-58
2022/08/28 07:36:23;;;;;;;0.47;0.47;;;24.20;99.90;;;;;;5003086;28;20775;-59
2022/08/28 07:38:57;;;;;;;0.30;0.30;;;24.20;99.90;;;;;;5003312;28;20435;-59
2022/08/28 07:41:29;;;;;;;0.50;0.50;;;24.60;99.90;;;;;;5006357;28;20438;-59
2022/08/28 07:46:43;;;;;;;0.82;0.52;;;24.70;99.90;;;;;;4998489;28;20548;-59
2022/08/28 07:49:10;;;;;;;0.40;0.40;;;25.00;99.90;;;;;;5001515;28;20880;-59
2022/08/28 07:51:40;;;;;;;0.45;0.45;;;25.00;99.90;;;;;;4999878;28;20568;-59
2022/08/28 07:54:13;;;;;;;0.50;0.50;;;24.10;99.90;;;;;;5006217;28;20512;-59
2022/08/28 07:56:44;;;;;;;0.70;0.40;;;24.00;99.90;;;;;;5002995;28;20845;-59
2022/08/28 07:59:12;;;;;;;0.60;0.60;;;23.70;99.90;;;;;;5005483;28;20440;-60
2022/08/28 08:01:47;;;;;;;0.70;0.70;;;23.50;99.90;;;;;;4999711;28;20439;-59
2022/08/28 08:04:17;;;;;;;0.50;0.50;;;23.70;99.90;;;;;;5002261;28;20432;-57
2022/08/28 08:06:45;;;;;;;1.60;0.40;;;23.70;99.90;;;;;;5006582;28;20431;-58
2022/08/28 08:09:14;;;;;;;0.50;0.50;;;23.50;99.90;;;;;;5002191;28;20506;-57
2022/08/28 08:11:42;;;;;;;0.40;0.40;;;23.40;99.90;;;;;;5005663;28;20428;-57
2022/08/28 08:14:09;;;;;;;0.85;0.68;;;23.30;99.90;;;;;;5004992;28;20432;-57
2022/08/28 08:16:40;;;;;;;1.10;0.52;;;23.40;99.90;;;;;;5001609;28;20502;-57
2022/08/28 08:19:08;;;;;;;0.50;0.50;;;23.20;99.90;;;;;;5003187;28;20444;-57
2022/08/28 08:21:36;;;;;;;0.40;0.40;;;23.20;99.90;;;;;;4996142;28;20432;-56
2022/08/28 08:24:03;;;;;;;0.68;0.63;;;23.40;99.90;;;;;;5002050;28;20795;-57
2022/08/28 08:26:31;;;;;;;0.50;0.50;;;23.80;99.90;;;;;;5002573;28;20440;-58
2022/08/28 08:29:01;;;;;;;0.50;0.50;;;24.40;99.90;;;;;;5004397;28;20868;-57
2022/08/28 08:31:32;;;;;;;1.23;0.68;;;24.60;99.90;;;;;;4999546;28;20919;-57
2022/08/28 08:34:03;;;;;;;0.30;0.30;;;24.60;99.90;;;;;;5001969;28;20436;-57
2022/08/28 08:36:32;;;;;;;0.40;0.40;;;24.60;99.90;;;;;;5006277;28;20436;-58
2022/08/28 08:38:59;;;;;;;0.40;0.40;;;24.40;99.90;;;;;;5005016;28;20443;-57
2022/08/28 08:41:46;;;;;;;0.52;0.52;;;24.20;99.90;;;;;;5004936;28;20432;-58
2022/08/28 08:44:34;;;;;;;0.52;0.52;;;24.60;99.90;;;;;;5001989;28;20548;-57
2022/08/28 08:47:07;;;;;;;0.45;0.45;;;24.90;99.90;;;;;;5002700;28;20468;-58
2022/08/28 08:50:02;;;;;;;0.30;0.30;;;25.00;99.90;;;;;;4998217;28;20453;-57
2022/08/28 08:52:40;;;;;;;1.95;0.55;;;25.20;99.90;;;;;;5006399;28;20511;-57
2022/08/28 08:55:34;;;;;;;0.70;0.50;;;25.30;99.90;;;;;;5003940;28;20427;-57
2022/08/28 08:58:18;;;;;;;0.80;0.55;;;25.40;99.90;;;;;;5004386;28;20903;-59
2022/08/28 09:00:48;;;;;;;0.60;0.60;;;25.90;99.90;;;;;;5004074;28;20930;-59
2022/08/28 09:03:24;;;;;;;0.43;0.43;;;26.10;99.20;;;;;;5000210;28;20439;-58
2022/08/28 09:06:03;;;;;;;0.40;0.40;;;26.10;99.40;;;;;;4996475;28;20472;-59
2022/08/28 09:08:30;;;;;;;0.45;0.45;;;25.90;99.10;;;;;;4997327;28;20445;-59
2022/08/28 09:11:28;;;;;;;0.45;0.32;;;25.60;99.50;;;;;;4995319;28;20466;-59
2022/08/28 09:14:03;;;;;;;0.40;0.40;;;25.70;99.40;;;;;;4997115;28;20434;-59
2022/08/28 09:16:37;;;;;;;0.60;0.50;;;25.90;99.10;;;;;;5002554;28;20441;-61
2022/08/28 09:19:08;;;;;;;0.30;0.30;;;26.10;98.70;;;;;;4996512;28;20461;-60
2022/08/28 09:21:39;;;;;;;0.30;0.30;;;26.00;98.80;;;;;;5001494;28;20515;-59
2022/08/28 09:24:27;;;;;;;0.63;0.60;;;25.80;98.80;;;;;;5000329;28;20441;-59
2022/08/28 09:26:58;;;;;;;0.50;0.50;;;26.70;98.50;;;;;;4990299;28;20442;-59
2022/08/28 09:29:45;;;;;;;0.50;0.50;;;28.20;98.00;;;;;;5001104;28;20426;-60
2022/08/28 09:32:22;;;;;;;0.32;0.32;;;27.70;96.50;;;;;;5001081;28;20962;-59
2022/08/28 09:35:29;;;;;;;0.50;0.50;;;27.60;96.50;;;;;;5005023;28;20436;-59
2022/08/28 09:38:19;;;;;;;0.40;0.40;;;27.20;96.50;;;;;;4984456;28;20495;-60
2022/08/28 09:43:36;;;;;;;0.60;0.60;;;27.00;96.20;;;;;;4979651;28;22452;-59
2022/08/28 09:46:04;;;;;;;0.40;0.40;;;27.20;96.40;;;;;;4968581;28;20440;-60
2022/08/28 09:48:42;;;;;;;0.27;0.27;;;27.20;96.60;;;;;;4981815;28;20842;-60
2022/08/28 09:51:21;;;;;;;0.50;0.50;;;28.00;96.70;;;;;;4975526;28;20467;-59
2022/08/28 09:53:50;;;;;;;0.40;0.40;;;28.70;95.50;;;;;;4977090;28;20432;-60
2022/08/28 09:56:27;;;;;;;0.30;0.30;;;28.70;95.10;;;;;;4978463;28;20458;-59
2022/08/28 09:58:59;;;;;;;0.40;0.40;;;29.00;94.60;;;;;;4979690;28;20527;-59
2022/08/28 10:01:41;;;;;;;0.35;0.35;;;28.70;94.40;;;;;;4982108;28;20827;-59
2022/08/28 10:04:42;;;;;;;0.40;0.30;;;28.40;94.80;;;;;;4956719;28;20442;-60
2022/08/28 10:07:31;;;;;;;0.80;0.40;;;28.60;94.90;;;;;;4969390;28;20438;-60
2022/08/28 10:10:12;;;;;;;0.50;0.50;;;29.00;94.10;;;;;;4984695;28;20457;-59
2022/08/28 10:13:00;;;;;;;0.50;0.50;;;29.00;93.50;;;;;;4986460;28;20469;-60
2022/08/28 10:15:56;;;;;;;0.50;0.50;;;29.30;93.60;;;;;;4998463;28;20431;-59
2022/08/28 10:18:26;;;;;;;0.75;0.75;;;29.80;92.90;;;;;;4981837;28;20432;-59
2022/08/28 10:21:11;;;;;;;0.50;0.50;;;27.90;93.50;;;;;;4999568;28;20823;-59
2022/08/28 10:24:07;;;;;;;0.40;0.40;;;28.10;93.90;;;;;;4993706;28;20440;-59
2022/08/28 10:26:50;;;;;;;0.68;0.45;;;28.10;93.90;;;;;;4993327;28;20430;-59
2022/08/28 10:29:16;;;;;;;0.60;0.60;;;28.10;94.20;;;;;;5004562;28;21053;-59
2022/08/28 10:32:05;;;;;;;0.50;0.50;;;28.50;94.20;;;;;;5005872;28;20438;-59
2022/08/28 10:35:00;;;;;;;0.50;0.50;;;29.20;93.20;;;;;;4997569;28;20443;-60
2022/08/28 10:37:49;;;;;;;0.35;0.35;;;29.00;93.10;;;;;;4996337;28;20443;-59
2022/08/28 10:40:27;;;;;;;0.50;0.50;;;29.00;93.10;;;;;;4991842;28;20434;-59
2022/08/28 10:43:10;;;;;;;0.30;0.30;;;28.70;92.80;;;;;;5001144;28;20915;-59
2022/08/28 10:45:37;;;;;;;0.77;0.60;;;29.40;93.10;;;;;;5011329;28;20504;-60
2022/08/28 10:48:23;;;;;;;0.50;0.50;;;29.70;93.00;;;;;;5008375;28;20494;-60
2022/08/28 10:50:53;;;;;;;0.80;0.50;;;30.10;92.50;;;;;;5003841;28;20463;-60
2022/08/28 10:53:45;;;;;;;0.55;0.55;;;30.30;92.10;;;;;;5005543;28;20993;-60
2022/08/28 10:56:19;;;;;;;0.50;0.50;;;30.70;92.10;;;;;;5002976;28;20442;-60
2022/08/28 10:58:50;;;;;;;0.40;0.40;;;30.30;91.30;;;;;;4996830;28;20507;-60
2022/08/28 11:01:30;;;;;;;0.30;0.30;;;29.80;92.00;;;;;;4999360;28;20470;-60
2022/08/28 11:04:00;;;;;;;0.85;0.60;;;29.70;91.90;;;;;;5004884;28;20432;-61
2022/08/28 11:06:38;;;;;;;1.70;0.80;;;29.60;92.20;;;;;;5008656;28;20469;-60
2022/08/28 11:09:24;;;;;;;0.40;0.40;;;29.70;91.90;;;;;;5003021;28;20528;-60
2022/08/28 11:11:55;;;;;;;0.40;0.40;;;30.00;91.50;;;;;;5002662;28;20509;-61
2022/08/28 11:14:50;;;;;;;2.10;0.40;;;30.40;91.20;;;;;;5009560;28;20815;-60
2022/08/28 11:17:26;;;;;;;0.50;0.50;;;30.10;91.30;;;;;;5003752;28;20446;-60
2022/08/28 11:20:06;;;;;;;0.80;0.70;;;29.90;91.60;;;;;;4999765;28;20441;-60
2022/08/28 11:22:41;;;;;;;2.30;0.50;;;29.80;91.50;;;;;;5007734;28;20444;-60
2022/08/28 11:25:17;;;;;;;0.50;0.50;;;29.50;91.50;;;;;;5000746;28;20432;-60
2022/08/28 11:28:14;;;;;;;0.65;0.65;;;29.30;92.20;;;;;;5007609;28;20509;-60
2022/08/28 11:30:44;;;;;;;0.45;0.45;;;29.60;91.50;;;;;;5005837;28;20439;-59
2022/08/28 11:33:48;;;;;;;0.40;0.40;;;29.60;91.40;;;;;;5004915;28;20490;-60
2022/08/28 11:36:21;;;;;;;0.95;0.52;;;29.80;91.60;;;;;;4987707;28;20509;-61
2022/08/28 11:38:50;;;;;;;0.50;0.50;;;30.00;91.10;;;;;;4992635;28;20604;-59
2022/08/28 11:41:27;;;;;;;0.40;0.40;;;30.20;90.90;;;;;;4981110;28;20440;-59
2022/08/28 11:44:12;;;;;;;0.50;0.50;;;29.80;91.10;;;;;;4985622;28;21273;-60
2022/08/28 11:46:41;;;;;;;0.40;0.40;;;30.00;91.10;;;;;;4982001;28;20996;-60
2022/08/28 11:49:32;;;;;;;0.40;0.40;;;30.20;91.00;;;;;;4983127;28;20437;-60
2022/08/28 11:52:26;;;;;;;0.60;0.60;;;30.20;90.70;;;;;;4985862;28;20452;-59
2022/08/28 11:55:08;;;;;;;0.40;0.40;;;29.70;91.00;;;;;;4984997;28;20898;-59
2022/08/28 11:57:47;;;;;;;0.50;0.50;;;30.00;90.90;;;;;;4988299;28;20544;-60
2022/08/28 12:00:40;;;;;;;0.50;0.50;;;30.50;90.90;;;;;;4986454;28;21055;-60
2022/08/28 12:03:27;;;;;;;0.43;0.43;;;31.00;90.40;;;;;;4977711;28;20948;-59
2022/08/28 12:05:55;;;;;;;0.50;0.50;;;31.50;90.00;;;;;;4988001;28;20436;-60
2022/08/28 12:08:57;;;;;;;0.55;0.55;;;31.40;90.00;;;;;;4986954;28;20442;-60
2022/08/28 12:11:58;;;;;;;0.40;0.40;;;31.20;90.00;;;;;;5000426;28;20464;-60
2022/08/28 12:14:25;;;;;;;0.47;0.47;;;31.20;89.40;;;;;;4971596;28;20777;-59
2022/08/28 12:16:58;;;;;;;0.50;0.50;;;31.10;89.80;;;;;;5010133;28;20431;-61
2022/08/28 12:20:14;;;;;;;1.30;0.50;;;31.40;89.70;;;;;;5002408;28;20460;-61
2022/08/28 12:22:51;;;;;;;0.57;0.57;;;31.50;89.20;;;;;;5002697;28;20432;-60
2022/08/28 12:25:40;;;;;;;0.52;0.52;;;31.80;88.30;;;;;;5009056;28;20479;-61
2022/08/28 12:28:17;;;;;;;0.60;0.60;;;31.90;87.80;;;;;;5008629;28;20464;-60
2022/08/28 12:31:07;;;;;;;0.60;0.60;;;31.60;88.40;;;;;;5002748;28;20527;-64
2022/08/28 12:33:48;;;;;;;0.60;0.60;;;30.70;88.50;;;;;;4985265;28;20425;-60
2022/08/28 12:36:16;;;;;;;0.37;0.37;;;29.50;90.00;;;;;;5003706;28;20451;-60
2022/08/28 12:38:51;;;;;;;1.45;0.43;;;28.60;90.80;;;;;;5008315;28;20465;-60
2022/08/28 12:41:19;;;;;;;0.40;0.40;;;28.20;91.40;;;;;;5003553;28;20424;-60
2022/08/28 12:43:49;;;;;;;0.57;0.57;;;28.60;91.20;;;;;;5004026;28;20475;-60
2022/08/28 12:46:29;;;;;;;0.57;0.57;;;29.30;91.20;;;;;;5002485;28;20514;-60
2022/08/28 12:49:02;;;;;;;0.50;0.50;;;30.40;90.50;;;;;;5001450;28;20432;-60
2022/08/28 12:51:32;;;;;;;0.93;0.47;;;31.50;89.20;;;;;;5008594;28;20901;-60
2022/08/28 12:54:01;;;;;;;0.50;0.50;;;32.20;87.10;;;;;;5005450;28;20520;-60
2022/08/28 12:56:32;;;;;;;0.45;0.45;;;32.70;86.30;;;;;;5003706;28;20477;-61
2022/08/28 12:59:32;;;;;;;0.50;0.50;;;33.10;86.10;;;;;;4995069;28;20447;-60
2022/08/28 13:02:09;;;;;;;0.43;0.43;;;33.20;84.10;;;;;;5005501;28;20420;-60
2022/08/28 13:04:53;;;;;;;0.50;0.50;;;32.90;83.90;;;;;;5001871;28;20542;-60
2022/08/28 13:07:33;;;;;;;0.50;0.50;;;31.90;84.70;;;;;;5000978;28;20464;-60
2022/08/28 13:10:17;;;;;;;0.50;0.50;;;30.90;86.20;;;;;;4999876;28;21091;-61
2022/08/28 13:12:50;;;;;;;0.65;0.65;;;30.80;86.70;;;;;;5003315;28;20440;-60
2022/08/28 13:16:05;;;;;;;0.60;0.60;;;30.30;87.30;;;;;;5005530;28;20850;-60
2022/08/28 13:19:04;;;;;;;0.43;0.43;;;29.50;89.40;;;;;;4937189;29;20528;-59
2022/08/28 13:21:33;;;;;;;0.52;0.52;;;29.40;89.00;;;;;;4929786;29;21251;-59
2022/08/28 13:24:20;;;;;;;0.65;0.50;;;29.00;89.80;;;;;;4936007;29;20442;-60
2022/08/28 13:27:01;;;;;;;0.40;0.40;;;29.20;90.10;;;;;;4938017;29;21216;-60
2022/08/28 13:29:28;;;;;;;1.08;0.52;;;29.40;90.10;;;;;;4936857;29;21161;-60